sensor_id;sensor_type;location;lat;lon;timestamp;pressure;altitude;pressure_sealevel;temperature;humidity
16461;BME280;8341;42.048;24.650;2023-05-23T00:00:56;96990.22;;;15.95;84.62
16461;BME280;8341;42.048;24.650;2023-05-23T00:03:23;96993.94;;;15.97;84.21
16461;BME280;8341;42.048;24.650;2023-05-23T00:05:50;96998.94;;;15.99;83.67
16461;BME280;8341;42.048;24.650;2023-05-23T00:08:17;96996.16;;;16.04;83.44
16461;BME280;8341;42.048;24.650;2023-05-23T00:10:44;96987.38;;;16.06;83.33
16461;BME280;8341;42.048;24.650;2023-05-23T00:13:12;96991.84;;;16.09;84.14
16461;BME280;8341;42.048;24.650;2023-05-23T00:15:40;96996.16;;;16.04;84.24
16461;BME280;8341;42.048;24.650;2023-05-23T00:18:07;96991.44;;;15.99;84.55
16461;BME280;8341;42.048;24.650;2023-05-23T00:20:35;96995.13;;;16.07;83.30
16461;BME280;8341;42.048;24.650;2023-05-23T00:23:03;96989.91;;;16.04;83.31
16461;BME280;8341;42.048;24.650;2023-05-23T00:25:29;96994.94;;;16.00;83.69
16461;BME280;8341;42.048;24.650;2023-05-23T00:27:58;96992.66;;;16.04;82.69
16461;BME280;8341;42.048;24.650;2023-05-23T00:30:27;96990.94;;;16.01;84.05
16461;BME280;8341;42.048;24.650;2023-05-23T00:32:54;96982.69;;;16.01;82.08
16461;BME280;8341;42.048;24.650;2023-05-23T00:35:21;96984.19;;;16.02;81.85
16461;BME280;8341;42.048;24.650;2023-05-23T00:37:48;96984.19;;;16.02;82.98
16461;BME280;8341;42.048;24.650;2023-05-23T00:40:16;96981.44;;;16.02;81.99
16461;BME280;8341;42.048;24.650;2023-05-23T00:42:43;96981.97;;;15.95;82.23
16461;BME280;8341;42.048;24.650;2023-05-23T00:45:10;96988.44;;;15.97;82.79
16461;BME280;8341;42.048;24.650;2023-05-23T00:47:39;96981.69;;;15.98;82.53
16461;BME280;8341;42.048;24.650;2023-05-23T00:50:08;96986.00;;;15.94;80.88
16461;BME280;8341;42.048;24.650;2023-05-23T00:52:36;96983.25;;;15.94;81.48
16461;BME280;8341;42.048;24.650;2023-05-23T00:55:03;96978.25;;;15.92;81.44
16461;BME280;8341;42.048;24.650;2023-05-23T00:57:31;96971.72;;;15.95;82.23
16461;BME280;8341;42.048;24.650;2023-05-23T00:59:59;96973.97;;;15.97;81.12
16461;BME280;8341;42.048;24.650;2023-05-23T01:02:26;96974.69;;;15.97;80.79
16461;BME280;8341;42.048;24.650;2023-05-23T01:04:55;96966.97;;;15.96;81.24
16461;BME280;8341;42.048;24.650;2023-05-23T01:07:22;96969.94;;;15.98;81.16
16461;BME280;8341;42.048;24.650;2023-05-23T01:09:49;96969.72;;;15.96;81.01
16461;BME280;8341;42.048;24.650;2023-05-23T01:12:22;96966.25;;;15.90;80.08
16461;BME280;8341;42.048;24.650;2023-05-23T01:15:03;96970.44;;;16.02;79.39
16461;BME280;8341;42.048;24.650;2023-05-23T01:17:33;96965.91;;;16.04;79.63
16461;BME280;8341;42.048;24.650;2023-05-23T01:20:09;96971.66;;;16.01;79.00
16461;BME280;8341;42.048;24.650;2023-05-23T01:22:58;96966.13;;;16.06;78.55
16461;BME280;8341;42.048;24.650;2023-05-23T01:25:38;96964.34;;;16.09;79.37
16461;BME280;8341;42.048;24.650;2023-05-23T01:28:16;96961.38;;;16.07;79.53
16461;BME280;8341;42.048;24.650;2023-05-23T01:30:45;96959.16;;;16.00;78.88
16461;BME280;8341;42.048;24.650;2023-05-23T01:33:15;96969.16;;;16.03;78.63
16461;BME280;8341;42.048;24.650;2023-05-23T01:35:43;96966.94;;;16.01;78.73
16461;BME280;8341;42.048;24.650;2023-05-23T01:38:10;96958.50;;;15.94;79.41
16461;BME280;8341;42.048;24.650;2023-05-23T01:40:38;96955.97;;;15.96;79.17
16461;BME280;8341;42.048;24.650;2023-05-23T01:43:05;96963.94;;;15.99;79.97
16461;BME280;8341;42.048;24.650;2023-05-23T01:45:34;96958.72;;;15.96;80.49
16461;BME280;8341;42.048;24.650;2023-05-23T01:48:01;96963.25;;;15.93;79.95
16461;BME280;8341;42.048;24.650;2023-05-23T01:50:29;96959.97;;;15.95;80.72
16461;BME280;8341;42.048;24.650;2023-05-23T01:52:58;96959.47;;;15.96;80.81
16461;BME280;8341;42.048;24.650;2023-05-23T01:55:26;96959.69;;;15.98;80.11
16461;BME280;8341;42.048;24.650;2023-05-23T01:57:54;96963.47;;;15.95;80.46
16461;BME280;8341;42.048;24.650;2023-05-23T02:00:22;96955.53;;;15.92;79.31
16461;BME280;8341;42.048;24.650;2023-05-23T02:02:50;96963.25;;;15.93;79.66
16461;BME280;8341;42.048;24.650;2023-05-23T02:05:17;96956.25;;;15.92;79.49
16461;BME280;8341;42.048;24.650;2023-05-23T02:07:44;96957.56;;;15.86;79.56
16461;BME280;8341;42.048;24.650;2023-05-23T02:10:11;96956.06;;;15.85;79.85
16461;BME280;8341;42.048;24.650;2023-05-23T02:12:38;96946.84;;;15.82;81.15
16461;BME280;8341;42.048;24.650;2023-05-23T02:15:05;96944.16;;;15.77;80.93
16461;BME280;8341;42.048;24.650;2023-05-23T02:17:33;96955.09;;;15.82;81.19
16461;BME280;8341;42.048;24.650;2023-05-23T02:20:01;96956.88;;;15.80;81.23
16461;BME280;8341;42.048;24.650;2023-05-23T02:22:28;96954.41;;;15.76;80.79
16461;BME280;8341;42.048;24.650;2023-05-23T02:24:55;96945.41;;;15.76;80.61
16461;BME280;8341;42.048;24.650;2023-05-23T02:27:21;96949.19;;;15.73;80.50
16461;BME280;8341;42.048;24.650;2023-05-23T02:29:48;96954.22;;;15.69;81.05
16461;BME280;8341;42.048;24.650;2023-05-23T02:32:15;96956.97;;;15.69;80.52
16461;BME280;8341;42.048;24.650;2023-05-23T02:34:42;96959.47;;;15.66;80.80
16461;BME280;8341;42.048;24.650;2023-05-23T02:37:12;96970.72;;;15.69;80.32
16461;BME280;8341;42.048;24.650;2023-05-23T02:39:39;96970.44;;;15.72;80.26
16461;BME280;8341;42.048;24.650;2023-05-23T02:42:05;96961.94;;;15.70;79.74
16461;BME280;8341;42.048;24.650;2023-05-23T02:44:32;96957.44;;;15.73;80.10
16461;BME280;8341;42.048;24.650;2023-05-23T02:46:59;96959.47;;;15.66;80.97
16461;BME280;8341;42.048;24.650;2023-05-23T02:49:26;96968.47;;;15.67;80.99
16461;BME280;8341;42.048;24.650;2023-05-23T02:51:53;96971.19;;;15.73;81.86
16461;BME280;8341;42.048;24.650;2023-05-23T02:54:21;96960.44;;;15.69;80.17
16461;BME280;8341;42.048;24.650;2023-05-23T02:56:47;96962.47;;;15.69;81.72
16461;BME280;8341;42.048;24.650;2023-05-23T02:59:16;96960.13;;;15.78;81.51
16461;BME280;8341;42.048;24.650;2023-05-23T03:01:43;96955.16;;;15.77;81.82
16461;BME280;8341;42.048;24.650;2023-05-23T03:04:10;96956.63;;;15.78;81.81
16461;BME280;8341;42.048;24.650;2023-05-23T03:06:38;96954.88;;;15.80;82.25
16461;BME280;8341;42.048;24.650;2023-05-23T03:09:07;96955.63;;;15.81;82.03
16461;BME280;8341;42.048;24.650;2023-05-23T03:11:35;96953.84;;;15.83;81.61
16461;BME280;8341;42.048;24.650;2023-05-23T03:14:02;96955.34;;;15.84;80.84
16461;BME280;8341;42.048;24.650;2023-05-23T03:16:29;96946.84;;;15.82;79.18
16461;BME280;8341;42.048;24.650;2023-05-23T03:18:56;96952.53;;;15.90;78.16
16461;BME280;8341;42.048;24.650;2023-05-23T03:21:23;96960.28;;;15.91;79.67
16461;BME280;8341;42.048;24.650;2023-05-23T03:23:50;96959.00;;;15.92;80.60
16461;BME280;8341;42.048;24.650;2023-05-23T03:26:16;96957.91;;;16.01;79.24
16461;BME280;8341;42.048;24.650;2023-05-23T03:28:45;96964.44;;;15.98;79.27
16461;BME280;8341;42.048;24.650;2023-05-23T03:31:11;96956.19;;;15.98;80.42
16461;BME280;8341;42.048;24.650;2023-05-23T03:33:38;96965.94;;;15.99;79.01
16461;BME280;8341;42.048;24.650;2023-05-23T03:36:05;96956.69;;;16.02;79.33
16461;BME280;8341;42.048;24.650;2023-05-23T03:38:32;96962.41;;;16.04;78.51
16461;BME280;8341;42.048;24.650;2023-05-23T03:40:59;96961.31;;;16.12;78.95
16461;BME280;8341;42.048;24.650;2023-05-23T03:43:25;96961.81;;;16.11;77.96
16461;BME280;8341;42.048;24.650;2023-05-23T03:45:53;96963.03;;;16.15;78.11
16461;BME280;8341;42.048;24.650;2023-05-23T03:48:20;96964.47;;;16.22;78.36
16461;BME280;8341;42.048;24.650;2023-05-23T03:50:47;96963.88;;;16.29;77.75
16461;BME280;8341;42.048;24.650;2023-05-23T03:53:14;96955.84;;;16.31;78.05
16461;BME280;8341;42.048;24.650;2023-05-23T03:55:41;96951.78;;;16.38;76.21
16461;BME280;8341;42.048;24.650;2023-05-23T03:58:08;96955.53;;;16.40;76.83
16461;BME280;8341;42.048;24.650;2023-05-23T04:00:35;96961.16;;;16.53;77.01
16461;BME280;8341;42.048;24.650;2023-05-23T04:03:03;96958.63;;;16.55;76.65
16461;BME280;8341;42.048;24.650;2023-05-23T04:05:30;96955.28;;;16.62;76.16
16461;BME280;8341;42.048;24.650;2023-05-23T04:07:57;96955.06;;;16.60;75.92
16461;BME280;8341;42.048;24.650;2023-05-23T04:10:26;96953.72;;;16.67;76.32
16461;BME280;8341;42.048;24.650;2023-05-23T04:12:52;96946.66;;;16.71;76.67
16461;BME280;8341;42.048;24.650;2023-05-23T04:15:21;96964.81;;;16.80;76.68
16461;BME280;8341;42.048;24.650;2023-05-23T04:17:47;96962.56;;;17.16;75.93
16461;BME280;8341;42.048;24.650;2023-05-23T04:20:17;96956.56;;;18.12;70.47
16461;BME280;8341;42.048;24.650;2023-05-23T04:22:44;96961.31;;;19.24;67.76
16461;BME280;8341;42.048;24.650;2023-05-23T04:25:10;96968.19;;;20.27;61.41
16461;BME280;8341;42.048;24.650;2023-05-23T04:27:38;96968.34;;;20.57;59.37
16461;BME280;8341;42.048;24.650;2023-05-23T04:30:06;96965.47;;;20.34;59.63
16461;BME280;8341;42.048;24.650;2023-05-23T04:32:34;96967.34;;;20.75;58.89
16461;BME280;8341;42.048;24.650;2023-05-23T04:35:01;96967.81;;;21.45;56.09
16461;BME280;8341;42.048;24.650;2023-05-23T04:37:30;96973.63;;;22.23;53.84
16461;BME280;8341;42.048;24.650;2023-05-23T04:39:57;96977.28;;;22.48;51.43
16461;BME280;8341;42.048;24.650;2023-05-23T04:42:24;96975.50;;;22.13;52.53
16461;BME280;8341;42.048;24.650;2023-05-23T04:44:51;96972.13;;;21.76;53.75
16461;BME280;8341;42.048;24.650;2023-05-23T04:47:18;96972.44;;;21.43;55.13
16461;BME280;8341;42.048;24.650;2023-05-23T04:49:45;96974.28;;;21.40;55.65
16461;BME280;8341;42.048;24.650;2023-05-23T04:52:12;96959.50;;;21.60;54.75
16461;BME280;8341;42.048;24.650;2023-05-23T04:54:40;96973.22;;;21.81;53.16
16461;BME280;8341;42.048;24.650;2023-05-23T04:57:09;96979.47;;;21.36;54.54
16461;BME280;8341;42.048;24.650;2023-05-23T04:59:36;96966.16;;;21.50;55.64
16461;BME280;8341;42.048;24.650;2023-05-23T05:02:04;96982.47;;;21.83;55.29
16461;BME280;8341;42.048;24.650;2023-05-23T05:04:32;96983.09;;;21.97;55.26
16461;BME280;8341;42.048;24.650;2023-05-23T05:06:58;96990.81;;;21.83;54.63
16461;BME280;8341;42.048;24.650;2023-05-23T05:09:27;96983.38;;;21.63;56.78
16461;BME280;8341;42.048;24.650;2023-05-23T05:11:56;96984.25;;;21.28;58.56
16461;BME280;8341;42.048;24.650;2023-05-23T05:14:23;96987.25;;;21.02;58.88
16461;BME280;8341;42.048;24.650;2023-05-23T05:16:50;96985.97;;;21.03;57.74
16461;BME280;8341;42.048;24.650;2023-05-23T05:19:18;96988.47;;;20.86;58.13
16461;BME280;8341;42.048;24.650;2023-05-23T05:21:45;96990.84;;;20.82;57.80
16461;BME280;8341;42.048;24.650;2023-05-23T05:24:12;96981.38;;;20.70;59.97
16461;BME280;8341;42.048;24.650;2023-05-23T05:26:40;96994.63;;;20.64;60.25
16461;BME280;8341;42.048;24.650;2023-05-23T05:29:08;96985.53;;;20.55;60.17
16461;BME280;8341;42.048;24.650;2023-05-23T05:31:35;96987.53;;;20.47;60.44
16461;BME280;8341;42.048;24.650;2023-05-23T05:34:02;96989.66;;;20.13;59.33
16461;BME280;8341;42.048;24.650;2023-05-23T05:36:29;96999.72;;;20.03;59.59
16461;BME280;8341;42.048;24.650;2023-05-23T05:38:57;96989.06;;;20.28;60.25
16461;BME280;8341;42.048;24.650;2023-05-23T05:41:23;96993.00;;;20.40;63.83
16461;BME280;8341;42.048;24.650;2023-05-23T05:43:51;96984.16;;;20.41;60.37
16461;BME280;8341;42.048;24.650;2023-05-23T05:46:19;96996.13;;;20.65;59.70
16461;BME280;8341;42.048;24.650;2023-05-23T05:48:46;96986.66;;;20.60;58.20
16461;BME280;8341;42.048;24.650;2023-05-23T05:51:13;96995.78;;;20.68;60.01
16461;BME280;8341;42.048;24.650;2023-05-23T05:53:39;97009.19;;;20.85;59.76
16461;BME280;8341;42.048;24.650;2023-05-23T05:56:06;96997.44;;;20.71;57.52
16461;BME280;8341;42.048;24.650;2023-05-23T05:58:34;96997.53;;;20.86;58.50
16461;BME280;8341;42.048;24.650;2023-05-23T06:01:01;96997.00;;;20.59;59.95
16461;BME280;8341;42.048;24.650;2023-05-23T06:03:29;96994.97;;;20.60;60.24
16461;BME280;8341;42.048;24.650;2023-05-23T06:05:56;96990.56;;;20.36;60.01
16461;BME280;8341;42.048;24.650;2023-05-23T06:08:23;96993.22;;;20.21;60.19
16461;BME280;8341;42.048;24.650;2023-05-23T06:10:50;96995.91;;;20.34;59.75
16461;BME280;8341;42.048;24.650;2023-05-23T06:13:17;96989.63;;;20.34;60.52
16461;BME280;8341;42.048;24.650;2023-05-23T06:15:44;96987.03;;;20.56;59.56
16461;BME280;8341;42.048;24.650;2023-05-23T06:18:11;96998.00;;;20.70;59.55
16461;BME280;8341;42.048;24.650;2023-05-23T06:20:39;96989.50;;;20.75;59.71
16461;BME280;8341;42.048;24.650;2023-05-23T06:23:06;96995.72;;;20.96;59.47
16461;BME280;8341;42.048;24.650;2023-05-23T06:25:33;96980.63;;;21.05;58.83
16461;BME280;8341;42.048;24.650;2023-05-23T06:28:00;96990.03;;;21.02;59.45
16461;BME280;8341;42.048;24.650;2023-05-23T06:30:26;96990.19;;;20.96;60.45
16461;BME280;8341;42.048;24.650;2023-05-23T06:32:54;96991.91;;;21.07;59.56
16461;BME280;8341;42.048;24.650;2023-05-23T06:35:20;96980.81;;;21.07;58.12
16461;BME280;8341;42.048;24.650;2023-05-23T06:37:49;96975.66;;;21.11;57.52
16461;BME280;8341;42.048;24.650;2023-05-23T06:40:15;96985.66;;;21.14;57.92
16461;BME280;8341;42.048;24.650;2023-05-23T06:42:42;96988.88;;;20.90;58.80
16461;BME280;8341;42.048;24.650;2023-05-23T06:45:10;96985.81;;;21.08;58.00
16461;BME280;8341;42.048;24.650;2023-05-23T06:47:36;96981.22;;;21.18;58.43
16461;BME280;8341;42.048;24.650;2023-05-23T06:50:04;96988.28;;;21.27;57.41
16461;BME280;8341;42.048;24.650;2023-05-23T06:52:31;96989.00;;;21.20;57.36
16461;BME280;8341;42.048;24.650;2023-05-23T06:54:59;96987.75;;;21.29;57.31
16461;BME280;8341;42.048;24.650;2023-05-23T06:57:25;96981.69;;;21.53;57.14
16461;BME280;8341;42.048;24.650;2023-05-23T06:59:52;96969.88;;;21.67;56.97
16461;BME280;8341;42.048;24.650;2023-05-23T07:02:19;96979.91;;;21.86;55.63
16461;BME280;8341;42.048;24.650;2023-05-23T07:04:46;96972.66;;;21.67;57.06
16461;BME280;8341;42.048;24.650;2023-05-23T07:07:13;96976.91;;;21.68;57.62
16461;BME280;8341;42.048;24.650;2023-05-23T07:09:39;96975.06;;;21.63;57.54
16461;BME280;8341;42.048;24.650;2023-05-23T07:12:08;96974.31;;;21.55;56.93
16461;BME280;8341;42.048;24.650;2023-05-23T07:14:34;96975.41;;;21.52;57.39
16461;BME280;8341;42.048;24.650;2023-05-23T07:17:02;96976.72;;;21.51;57.40
16461;BME280;8341;42.048;24.650;2023-05-23T07:19:29;96969.47;;;21.33;57.84
16461;BME280;8341;42.048;24.650;2023-05-23T07:21:56;96960.94;;;21.31;58.29
16461;BME280;8341;42.048;24.650;2023-05-23T07:24:23;96976.88;;;21.38;60.37
16461;BME280;8341;42.048;24.650;2023-05-23T07:26:50;96980.16;;;21.29;58.14
16461;BME280;8341;42.048;24.650;2023-05-23T07:29:18;96976.44;;;21.27;58.39
16461;BME280;8341;42.048;24.650;2023-05-23T07:31:45;96965.38;;;21.42;59.24
16461;BME280;8341;42.048;24.650;2023-05-23T07:34:12;96973.16;;;21.28;59.44
16461;BME280;8341;42.048;24.650;2023-05-23T07:36:38;96965.38;;;21.42;59.41
16461;BME280;8341;42.048;24.650;2023-05-23T07:39:06;96966.69;;;21.41;60.03
16461;BME280;8341;42.048;24.650;2023-05-23T07:41:33;96966.72;;;21.48;57.46
16461;BME280;8341;42.048;24.650;2023-05-23T07:44:00;96968.41;;;21.59;57.92
16461;BME280;8341;42.048;24.650;2023-05-23T07:46:28;96968.41;;;21.74;59.68
16461;BME280;8341;42.048;24.650;2023-05-23T07:48:55;96976.00;;;21.66;56.69
16461;BME280;8341;42.048;24.650;2023-05-23T07:51:22;96976.00;;;21.81;57.03
16461;BME280;8341;42.048;24.650;2023-05-23T07:53:49;96965.81;;;21.61;54.86
16461;BME280;8341;42.048;24.650;2023-05-23T07:56:16;96963.78;;;21.76;52.96
16461;BME280;8341;42.048;24.650;2023-05-23T07:58:43;96972.34;;;21.94;56.88
16461;BME280;8341;42.048;24.650;2023-05-23T08:01:10;96972.47;;;21.80;56.85
16461;BME280;8341;42.048;24.650;2023-05-23T08:03:38;96934.38;;;21.73;56.42
16461;BME280;8341;42.048;24.650;2023-05-23T08:06:05;96933.44;;;21.71;54.84
16461;BME280;8341;42.048;24.650;2023-05-23T08:08:33;96965.13;;;22.13;58.11
16461;BME280;8341;42.048;24.650;2023-05-23T08:11:00;96982.31;;;22.34;52.08
16461;BME280;8341;42.048;24.650;2023-05-23T08:13:27;96974.38;;;21.86;53.60
16461;BME280;8341;42.048;24.650;2023-05-23T08:15:54;96967.66;;;21.58;54.29
16461;BME280;8341;42.048;24.650;2023-05-23T08:18:21;96970.13;;;21.92;55.89
16461;BME280;8341;42.048;24.650;2023-05-23T08:20:49;96923.44;;;21.75;55.10
16461;BME280;8341;42.048;24.650;2023-05-23T08:23:16;96964.75;;;22.17;53.87
16461;BME280;8341;42.048;24.650;2023-05-23T08:25:43;96919.19;;;22.12;55.69
16461;BME280;8341;42.048;24.650;2023-05-23T08:28:10;96966.34;;;22.50;53.33
16461;BME280;8341;42.048;24.650;2023-05-23T08:30:37;96967.25;;;22.60;53.72
16461;BME280;8341;42.048;24.650;2023-05-23T08:33:03;96954.63;;;22.82;55.63
16461;BME280;8341;42.048;24.650;2023-05-23T08:35:31;96965.00;;;22.81;55.10
16461;BME280;8341;42.048;24.650;2023-05-23T08:38:01;96955.06;;;22.63;51.21
16461;BME280;8341;42.048;24.650;2023-05-23T08:40:29;96961.94;;;22.62;52.53
16461;BME280;8341;42.048;24.650;2023-05-23T08:42:56;96960.84;;;22.35;54.88
16461;BME280;8341;42.048;24.650;2023-05-23T08:45:23;96966.34;;;22.50;54.64
16461;BME280;8341;42.048;24.650;2023-05-23T08:47:51;96968.06;;;22.30;54.09
16461;BME280;8341;42.048;24.650;2023-05-23T08:50:21;96968.81;;;22.23;51.23
16461;BME280;8341;42.048;24.650;2023-05-23T08:52:53;96966.59;;;21.92;50.78
16461;BME280;8341;42.048;24.650;2023-05-23T08:55:23;96966.59;;;21.99;51.29
16461;BME280;8341;42.048;24.650;2023-05-23T08:57:51;96964.91;;;22.19;50.45
16461;BME280;8341;42.048;24.650;2023-05-23T09:00:18;96963.75;;;22.60;51.24
16461;BME280;8341;42.048;24.650;2023-05-23T09:02:45;96967.59;;;22.87;52.15
16461;BME280;8341;42.048;24.650;2023-05-23T09:05:13;96961.66;;;22.90;51.00
16461;BME280;8341;42.048;24.650;2023-05-23T09:07:40;96958.69;;;22.88;52.40
16461;BME280;8341;42.048;24.650;2023-05-23T09:10:09;96958.22;;;23.07;50.46
16461;BME280;8341;42.048;24.650;2023-05-23T09:12:38;96960.44;;;23.08;48.24
16461;BME280;8341;42.048;24.650;2023-05-23T09:15:05;96957.13;;;23.10;46.57
16461;BME280;8341;42.048;24.650;2023-05-23T09:17:33;96962.09;;;23.12;44.87
16461;BME280;8341;42.048;24.650;2023-05-23T09:20:00;96959.69;;;23.16;42.42
16461;BME280;8341;42.048;24.650;2023-05-23T09:22:29;96957.91;;;23.35;42.45
16461;BME280;8341;42.048;24.650;2023-05-23T09:24:56;96953.69;;;22.87;44.54
16461;BME280;8341;42.048;24.650;2023-05-23T09:27:23;96959.94;;;23.02;44.68
16461;BME280;8341;42.048;24.650;2023-05-23T09:29:51;96966.34;;;23.20;46.06
16461;BME280;8341;42.048;24.650;2023-05-23T09:32:19;96953.94;;;23.53;45.80
16461;BME280;8341;42.048;24.650;2023-05-23T09:34:55;96953.31;;;23.87;46.72
16461;BME280;8341;42.048;24.650;2023-05-23T09:37:28;96955.41;;;23.79;41.06
16461;BME280;8341;42.048;24.650;2023-05-23T09:39:56;96958.69;;;23.60;39.99
16461;BME280;8341;42.048;24.650;2023-05-23T09:42:23;96956.94;;;23.97;41.53
16461;BME280;8341;42.048;24.650;2023-05-23T09:44:52;96950.22;;;24.08;40.76
16461;BME280;8341;42.048;24.650;2023-05-23T09:47:19;96941.94;;;24.17;39.92
16461;BME280;8341;42.048;24.650;2023-05-23T09:49:46;96951.97;;;24.38;42.43
16461;BME280;8341;42.048;24.650;2023-05-23T09:52:13;96948.50;;;24.29;41.56
16461;BME280;8341;42.048;24.650;2023-05-23T09:54:40;96954.34;;;23.99;39.38
16461;BME280;8341;42.048;24.650;2023-05-23T09:57:09;96955.25;;;24.26;39.10
16461;BME280;8341;42.048;24.650;2023-05-23T09:59:38;96958.13;;;24.53;37.95
16461;BME280;8341;42.048;24.650;2023-05-23T10:02:10;96955.13;;;24.93;39.27
16461;BME280;8341;42.048;24.650;2023-05-23T10:04:38;96946.69;;;25.27;39.90
16461;BME280;8341;42.048;24.650;2023-05-23T10:07:11;96955.28;;;25.39;38.13
16461;BME280;8341;42.048;24.650;2023-05-23T10:09:46;96957.47;;;25.58;37.99
16461;BME280;8341;42.048;24.650;2023-05-23T10:12:44;96949.09;;;25.14;37.77
16461;BME280;8341;42.048;24.650;2023-05-23T10:15:14;96942.00;;;24.86;36.06
16461;BME280;8341;42.048;24.650;2023-05-23T10:18:15;96950.19;;;24.50;36.13
16461;BME280;8341;42.048;24.650;2023-05-23T10:20:46;96942.78;;;24.45;37.60
16461;BME280;8341;42.048;24.650;2023-05-23T10:23:15;96938.56;;;24.78;37.12
16461;BME280;8341;42.048;24.650;2023-05-23T10:25:43;96943.97;;;24.93;34.86
16461;BME280;8341;42.048;24.650;2023-05-23T10:28:10;96927.03;;;25.08;38.00
16461;BME280;8341;42.048;24.650;2023-05-23T10:30:39;96937.06;;;24.94;36.44
16461;BME280;8341;42.048;24.650;2023-05-23T10:33:06;96940.28;;;24.91;34.87
16461;BME280;8341;42.048;24.650;2023-05-23T10:35:44;96931.16;;;24.56;37.96
16461;BME280;8341;42.048;24.650;2023-05-23T10:38:26;96935.41;;;24.74;39.49
16461;BME280;8341;42.048;24.650;2023-05-23T10:40:59;96934.44;;;24.96;40.74
16461;BME280;8341;42.048;24.650;2023-05-23T10:43:33;96937.19;;;25.13;40.39
16461;BME280;8341;42.048;24.650;2023-05-23T10:46:02;96932.72;;;25.27;39.09
16461;BME280;8341;42.048;24.650;2023-05-23T10:48:33;96909.16;;;24.94;38.91
16461;BME280;8341;42.048;24.650;2023-05-23T10:51:03;96931.25;;;24.82;39.25
16461;BME280;8341;42.048;24.650;2023-05-23T10:53:31;96888.78;;;24.57;38.29
16461;BME280;8341;42.048;24.650;2023-05-23T10:55:57;96931.66;;;24.79;38.73
16461;BME280;8341;42.048;24.650;2023-05-23T10:58:24;96934.94;;;24.85;40.57
16461;BME280;8341;42.048;24.650;2023-05-23T11:00:56;96933.97;;;24.73;37.96
16461;BME280;8341;42.048;24.650;2023-05-23T11:03:33;96933.78;;;25.05;41.44
16461;BME280;8341;42.048;24.650;2023-05-23T11:06:02;96908.22;;;24.82;37.23
16461;BME280;8341;42.048;24.650;2023-05-23T11:08:36;96927.31;;;25.29;39.86
16461;BME280;8341;42.048;24.650;2023-05-23T11:11:04;96918.69;;;24.91;38.83
16461;BME280;8341;42.048;24.650;2023-05-23T11:13:56;96921.63;;;24.76;40.43
16461;BME280;8341;42.048;24.650;2023-05-23T11:16:25;96923.94;;;24.87;41.38
16461;BME280;8341;42.048;24.650;2023-05-23T11:19:20;96931.91;;;24.91;38.95
16461;BME280;8341;42.048;24.650;2023-05-23T11:21:52;96930.03;;;24.93;40.20
16461;BME280;8341;42.048;24.650;2023-05-23T11:24:20;96926.88;;;25.06;43.55
16461;BME280;8341;42.048;24.650;2023-05-23T11:26:53;96934.59;;;24.98;40.06
16461;BME280;8341;42.048;24.650;2023-05-23T11:29:25;96926.50;;;24.75;40.57
16461;BME280;8341;42.048;24.650;2023-05-23T11:31:53;96927.31;;;24.85;40.90
16461;BME280;8341;42.048;24.650;2023-05-23T11:34:20;96935.28;;;24.55;39.31
16461;BME280;8341;42.048;24.650;2023-05-23T11:36:53;96934.94;;;24.85;42.52
16461;BME280;8341;42.048;24.650;2023-05-23T11:39:20;96909.50;;;24.81;42.18
16461;BME280;8341;42.048;24.650;2023-05-23T11:41:57;96923.41;;;25.15;39.93
16461;BME280;8341;42.048;24.650;2023-05-23T11:44:24;96926.28;;;25.52;40.59
16461;BME280;8341;42.048;24.650;2023-05-23T11:47:01;96930.44;;;25.60;40.65
16461;BME280;8341;42.048;24.650;2023-05-23T11:49:29;96919.19;;;25.77;40.90
16461;BME280;8341;42.048;24.650;2023-05-23T11:51:58;96920.84;;;25.90;39.88
16461;BME280;8341;42.048;24.650;2023-05-23T11:54:25;96928.66;;;26.01;39.65
16461;BME280;8341;42.048;24.650;2023-05-23T11:56:52;96913.28;;;26.19;39.78
16461;BME280;8341;42.048;24.650;2023-05-23T11:59:20;96920.66;;;26.24;40.63
16461;BME280;8341;42.048;24.650;2023-05-23T12:01:47;96914.75;;;26.20;39.04
16461;BME280;8341;42.048;24.650;2023-05-23T12:04:14;96907.84;;;26.21;38.43
16461;BME280;8341;42.048;24.650;2023-05-23T12:06:41;96911.97;;;26.58;39.41
16461;BME280;8341;42.048;24.650;2023-05-23T12:09:10;96914.34;;;26.81;38.98
16461;BME280;8341;42.048;24.650;2023-05-23T12:11:40;96910.25;;;27.01;39.29
16461;BME280;8341;42.048;24.650;2023-05-23T12:14:07;96917.44;;;26.76;36.85
16461;BME280;8341;42.048;24.650;2023-05-23T12:16:35;96908.75;;;26.33;37.20
16461;BME280;8341;42.048;24.650;2023-05-23T12:19:03;96897.22;;;25.64;40.42
16461;BME280;8341;42.048;24.650;2023-05-23T12:21:42;96896.84;;;24.97;43.30
16461;BME280;8341;42.048;24.650;2023-05-23T12:24:18;96888.72;;;25.45;44.46
16461;BME280;8341;42.048;24.650;2023-05-23T12:26:50;96892.16;;;25.99;44.63
16461;BME280;8341;42.048;24.650;2023-05-23T12:29:19;96893.59;;;26.36;41.89
16461;BME280;8341;42.048;24.650;2023-05-23T12:31:50;96887.69;;;26.13;42.32
16461;BME280;8341;42.048;24.650;2023-05-23T12:34:18;96882.28;;;25.79;43.65
16461;BME280;8341;42.048;24.650;2023-05-23T12:36:46;96863.31;;;25.14;40.26
16461;BME280;8341;42.048;24.650;2023-05-23T12:39:14;96880.22;;;25.43;41.29
16461;BME280;8341;42.048;24.650;2023-05-23T12:41:43;96861.78;;;25.30;42.31
16461;BME280;8341;42.048;24.650;2023-05-23T12:44:14;96887.06;;;25.06;41.60
16461;BME280;8341;42.048;24.650;2023-05-23T12:46:41;96881.81;;;24.83;43.35
16461;BME280;8341;42.048;24.650;2023-05-23T12:49:08;96880.38;;;24.74;44.98
16461;BME280;8341;42.048;24.650;2023-05-23T12:51:35;96881.88;;;24.75;44.43
16461;BME280;8341;42.048;24.650;2023-05-23T12:54:02;96866.22;;;24.80;43.74
16461;BME280;8341;42.048;24.650;2023-05-23T12:56:29;96865.38;;;24.87;43.73
16461;BME280;8341;42.048;24.650;2023-05-23T12:58:58;96861.59;;;24.92;42.83
16461;BME280;8341;42.048;24.650;2023-05-23T13:01:26;96868.00;;;24.85;42.92
16461;BME280;8341;42.048;24.650;2023-05-23T13:03:53;96858.41;;;24.78;43.68
16461;BME280;8341;42.048;24.650;2023-05-23T13:06:19;96859.97;;;24.72;43.98